Time;durP1;ratioP1;P1;durP2;ratioP2;P2;SDS_P1;SDS_P2;PMS_P1;PMS_P2;Temp;Humidity;BMP_temperature;BMP_pressure;BME280_temperature;BME280_humidity;BME280_pressure;Samples;Min_cycle;Max_cycle;Signal;HPM_P1;HPM_P2
2020/12/13 00:02:08;;;;;;;10.07;9.17;;;8.20;99.90;;;;;;4964996;28;20515;-25
2020/12/13 00:04:37;;;;;;;10.60;9.50;;;8.20;99.90;;;;;;4967217;28;20445;-25
2020/12/13 00:07:05;;;;;;;10.73;9.73;;;8.10;99.90;;;;;;4966647;28;20675;-25
2020/12/13 00:09:32;;;;;;;10.00;9.00;;;8.10;99.90;;;;;;4966323;28;20585;-25
2020/12/13 00:12:02;;;;;;;10.07;9.10;;;8.10;99.90;;;;;;4966984;28;20457;-25
2020/12/13 00:14:29;;;;;;;11.10;10.00;;;8.10;99.90;;;;;;4967599;28;20836;-25
2020/12/13 00:16:55;;;;;;;10.33;9.37;;;8.10;99.90;;;;;;4968410;28;20499;-25
2020/12/13 00:19:22;;;;;;;13.23;9.60;;;8.20;99.90;;;;;;4966610;28;20508;-25
2020/12/13 00:21:50;;;;;;;12.10;10.90;;;8.20;99.90;;;;;;4966212;28;20527;-25
2020/12/13 00:24:18;;;;;;;10.50;9.50;;;8.20;99.90;;;;;;4966944;28;20449;-25
2020/12/13 00:26:46;;;;;;;11.43;10.10;;;8.10;99.90;;;;;;4968137;28;20465;-25
2020/12/13 00:29:15;;;;;;;10.07;9.27;;;8.10;99.90;;;;;;4967094;28;20815;-25
2020/12/13 00:31:42;;;;;;;11.80;10.60;;;8.20;99.90;;;;;;4966307;28;20582;-25
2020/12/13 00:34:15;;;;;;;12.67;11.13;;;8.20;99.90;;;;;;4968242;28;21107;-25
2020/12/13 00:36:42;;;;;;;10.23;9.20;;;8.20;99.90;;;;;;4966559;28;20507;-25
2020/12/13 00:39:10;;;;;;;9.73;8.83;;;8.20;99.90;;;;;;4967017;28;20441;-25
2020/12/13 00:41:37;;;;;;;10.17;9.20;;;8.20;99.90;;;;;;4965505;28;20632;-25
2020/12/13 00:44:06;;;;;;;10.20;9.20;;;8.20;99.90;;;;;;4966443;28;20457;-25
2020/12/13 00:46:32;;;;;;;9.13;8.23;;;8.20;99.90;;;;;;4966864;28;20531;-25
2020/12/13 00:48:59;;;;;;;9.53;8.63;;;8.20;99.90;;;;;;4965064;28;20480;-25
2020/12/13 00:51:26;;;;;;;10.27;9.37;;;8.20;99.90;;;;;;4966561;28;20452;-25
2020/12/13 00:53:55;;;;;;;9.03;8.23;;;8.20;99.90;;;;;;4964441;28;20464;-25
2020/12/13 00:56:21;;;;;;;10.10;9.10;;;8.10;99.90;;;;;;4967481;28;20500;-25
2020/12/13 00:58:50;;;;;;;10.67;9.43;;;8.10;99.90;;;;;;4982450;28;21165;-25
2020/12/13 01:01:20;;;;;;;10.20;9.20;;;8.10;99.90;;;;;;4966455;28;20489;-25
2020/12/13 01:03:48;;;;;;;10.40;9.50;;;8.00;99.90;;;;;;4967641;28;21073;-25
2020/12/13 01:06:21;;;;;;;11.93;10.80;;;8.00;99.90;;;;;;4965436;28;20481;-25
2020/12/13 01:08:50;;;;;;;10.33;9.33;;;8.00;99.90;;;;;;4968900;28;21117;-25
2020/12/13 01:11:28;;;;;;;11.47;10.37;;;8.00;99.90;;;;;;4971663;28;20886;-25
2020/12/13 01:13:56;;;;;;;11.10;10.10;;;8.10;99.90;;;;;;4971298;28;20521;-25
2020/12/13 01:16:26;;;;;;;11.63;10.53;;;8.10;99.90;;;;;;4970996;28;20449;-25
2020/12/13 01:18:54;;;;;;;11.27;10.17;;;8.20;99.90;;;;;;4970015;28;21242;-25
2020/12/13 01:21:24;;;;;;;11.83;10.60;;;8.20;99.90;;;;;;4968823;28;20556;-25
2020/12/13 01:23:50;;;;;;;10.40;9.40;;;8.20;99.90;;;;;;4985990;28;20458;-25
2020/12/13 01:26:20;;;;;;;13.47;12.17;;;8.30;99.90;;;;;;4970293;28;20548;-25
2020/12/13 01:28:48;;;;;;;11.80;10.60;;;8.30;99.90;;;;;;4970072;28;20489;-25
2020/12/13 01:31:18;;;;;;;11.97;10.80;;;8.30;99.90;;;;;;4969085;28;20441;-25
2020/12/13 01:33:47;;;;;;;13.57;12.17;;;8.30;99.90;;;;;;4970135;28;20516;-25
2020/12/13 01:36:17;;;;;;;12.53;11.33;;;8.30;99.90;;;;;;4968568;28;20535;-25
2020/12/13 01:38:45;;;;;;;12.20;10.67;;;8.20;99.90;;;;;;4969275;28;21071;-25
2020/12/13 01:41:13;;;;;;;11.80;10.57;;;8.30;99.90;;;;;;4969566;28;20910;-25
2020/12/13 01:43:40;;;;;;;12.97;11.50;;;8.30;99.90;;;;;;4969911;28;20854;-25
2020/12/13 01:46:07;;;;;;;13.57;12.17;;;8.30;99.90;;;;;;4969692;28;20560;-25
2020/12/13 01:48:34;;;;;;;12.10;10.80;;;8.20;99.90;;;;;;4970316;28;20543;-25
2020/12/13 01:51:12;;;;;;;12.20;11.03;;;8.20;99.90;;;;;;4968698;28;20961;-25
2020/12/13 01:53:40;;;;;;;12.43;10.90;;;8.20;99.90;;;;;;4970454;28;20567;-25
2020/12/13 01:56:07;;;;;;;13.40;12.10;;;8.20;99.90;;;;;;4970307;28;20549;-25
2020/12/13 01:58:37;;;;;;;14.50;11.83;;;8.30;99.90;;;;;;4969287;28;20445;-25
2020/12/13 02:01:05;;;;;;;11.77;10.63;;;8.30;99.90;;;;;;4969475;28;20520;-25
2020/12/13 02:03:40;;;;;;;13.83;10.73;;;8.20;99.90;;;;;;4969961;28;20444;-25
2020/12/13 02:06:15;;;;;;;13.13;11.73;;;8.30;99.90;;;;;;4970651;28;20558;-25
2020/12/13 02:08:43;;;;;;;14.43;11.80;;;8.30;99.90;;;;;;4969945;28;20744;-25
2020/12/13 02:11:11;;;;;;;13.47;12.20;;;8.20;99.90;;;;;;4970498;28;20457;-25
2020/12/13 02:13:38;;;;;;;11.70;10.60;;;8.20;99.90;;;;;;4969931;28;20468;-25
2020/12/13 02:16:07;;;;;;;12.20;11.00;;;8.10;99.90;;;;;;4969906;28;20577;-25
2020/12/13 02:18:34;;;;;;;11.73;10.53;;;8.20;99.90;;;;;;4969722;28;20441;-25
2020/12/13 02:21:04;;;;;;;12.20;11.10;;;8.20;99.90;;;;;;4968558;28;20488;-25
2020/12/13 02:23:32;;;;;;;11.57;10.47;;;8.20;99.90;;;;;;4968451;28;20460;-25
2020/12/13 02:26:01;;;;;;;12.73;11.33;;;8.20;99.90;;;;;;4968588;28;20954;-25
2020/12/13 02:28:28;;;;;;;10.50;9.47;;;8.20;99.90;;;;;;4969614;28;20567;-25
2020/12/13 02:30:55;;;;;;;12.00;10.67;;;8.20;99.90;;;;;;4967700;28;20524;-25
2020/12/13 02:33:22;;;;;;;11.70;10.47;;;8.20;99.90;;;;;;4970177;28;20995;-25
2020/12/13 02:35:50;;;;;;;12.93;10.90;;;8.20;99.90;;;;;;4969618;28;20464;-25
2020/12/13 02:38:18;;;;;;;12.17;11.03;;;8.20;99.90;;;;;;4969785;28;20535;-25
2020/12/13 02:40:46;;;;;;;11.63;10.40;;;8.30;99.90;;;;;;4969849;28;20453;-26
2020/12/13 02:43:13;;;;;;;12.27;11.07;;;8.30;99.90;;;;;;4969505;28;20500;-25
2020/12/13 02:45:40;;;;;;;11.67;10.47;;;8.30;99.90;;;;;;4969217;28;21009;-25
2020/12/13 02:48:07;;;;;;;12.10;10.80;;;8.30;99.90;;;;;;4969710;28;20491;-25
2020/12/13 02:50:33;;;;;;;11.13;10.03;;;8.30;99.90;;;;;;4968043;28;20563;-25
2020/12/13 02:53:00;;;;;;;12.30;11.00;;;8.30;99.90;;;;;;4968578;28;20450;-25
2020/12/13 02:55:27;;;;;;;10.37;9.47;;;8.40;99.90;;;;;;4968324;28;20852;-25
2020/12/13 02:57:56;;;;;;;11.40;9.90;;;8.40;99.90;;;;;;4968290;28;20531;-25
2020/12/13 03:00:23;;;;;;;11.90;10.80;;;8.30;99.90;;;;;;4969267;28;20882;-25
2020/12/13 03:02:50;;;;;;;12.00;10.33;;;8.30;99.90;;;;;;4970318;28;20453;-25
2020/12/13 03:05:18;;;;;;;11.40;10.27;;;8.30;99.90;;;;;;4969117;28;20484;-25
2020/12/13 03:07:45;;;;;;;10.00;9.00;;;8.30;99.90;;;;;;4969038;28;20485;-25
2020/12/13 03:10:13;;;;;;;10.63;9.53;;;8.30;99.90;;;;;;4969221;28;20460;-25
2020/12/13 03:12:39;;;;;;;11.20;10.00;;;8.20;99.90;;;;;;4968147;28;20531;-25
2020/12/13 03:15:07;;;;;;;10.30;9.30;;;8.20;99.90;;;;;;4969115;28;20449;-25
2020/12/13 03:17:36;;;;;;;10.07;9.17;;;8.20;99.90;;;;;;4966068;28;20517;-25
2020/12/13 03:20:03;;;;;;;10.13;9.13;;;8.20;99.90;;;;;;4968476;28;20507;-25
2020/12/13 03:22:32;;;;;;;10.33;9.43;;;8.20;99.90;;;;;;4968104;28;20523;-25
2020/12/13 03:24:59;;;;;;;9.43;8.50;;;8.20;99.90;;;;;;4969284;28;20465;-25
2020/12/13 03:27:27;;;;;;;9.23;8.40;;;8.20;99.90;;;;;;4969449;28;20480;-25
2020/12/13 03:29:54;;;;;;;9.77;8.77;;;8.10;99.90;;;;;;4968015;28;20560;-25
2020/12/13 03:32:22;;;;;;;9.50;8.60;;;8.10;99.90;;;;;;4968322;28;20497;-25
2020/12/13 03:34:50;;;;;;;10.47;9.37;;;8.20;99.90;;;;;;4966427;28;20487;-25
2020/12/13 03:37:17;;;;;;;11.27;9.40;;;8.20;99.90;;;;;;4973017;28;20442;-25
2020/12/13 03:39:45;;;;;;;9.67;8.67;;;8.30;99.90;;;;;;4968356;28;21039;-25
2020/12/13 03:42:12;;;;;;;9.83;8.93;;;8.30;99.90;;;;;;4967174;28;20493;-25
2020/12/13 03:44:40;;;;;;;9.70;8.80;;;8.30;99.90;;;;;;4967965;28;20449;-25
2020/12/13 03:47:07;;;;;;;10.27;9.27;;;8.30;99.90;;;;;;4968438;28;20540;-25
2020/12/13 03:49:36;;;;;;;9.13;8.30;;;8.40;99.90;;;;;;4967473;28;20445;-25
2020/12/13 03:52:03;;;;;;;9.57;8.77;;;8.40;99.90;;;;;;4968679;28;20560;-25
2020/12/13 03:54:31;;;;;;;10.80;9.70;;;8.30;99.90;;;;;;4968345;28;20465;-25
2020/12/13 03:56:58;;;;;;;10.00;9.00;;;8.30;99.90;;;;;;4968246;28;20452;-25
2020/12/13 03:59:24;;;;;;;9.17;8.30;;;8.30;99.90;;;;;;4968561;28;20511;-25
2020/12/13 04:01:51;;;;;;;9.07;8.20;;;8.30;99.90;;;;;;4966706;28;20883;-25
2020/12/13 04:04:18;;;;;;;8.77;7.97;;;8.30;99.90;;;;;;4968753;28;20456;-25
2020/12/13 04:06:45;;;;;;;9.93;8.93;;;8.20;99.90;;;;;;4967337;28;20870;-25
2020/12/13 04:09:13;;;;;;;8.50;7.70;;;8.30;99.90;;;;;;4965642;28;20530;-25
2020/12/13 04:11:40;;;;;;;8.83;8.07;;;8.30;99.90;;;;;;4967165;28;20839;-25
2020/12/13 04:14:08;;;;;;;10.70;7.87;;;8.30;99.90;;;;;;4967447;28;20445;-25
2020/12/13 04:16:35;;;;;;;9.53;8.40;;;8.30;99.90;;;;;;4966590;28;20481;-25
2020/12/13 04:19:03;;;;;;;8.83;8.13;;;8.30;99.90;;;;;;4965889;28;20493;-25
2020/12/13 04:21:30;;;;;;;8.67;7.93;;;8.30;99.90;;;;;;4967269;28;21299;-25
2020/12/13 04:23:58;;;;;;;9.97;7.47;;;8.30;99.90;;;;;;4966016;28;20461;-25
2020/12/13 04:26:26;;;;;;;9.13;8.43;;;8.30;99.90;;;;;;4966265;28;20932;-25
2020/12/13 04:28:53;;;;;;;9.33;8.57;;;8.30;99.90;;;;;;4965700;28;21176;-25
2020/12/13 04:31:22;;;;;;;8.53;7.70;;;8.30;99.90;;;;;;4966538;28;20477;-25
2020/12/13 04:33:50;;;;;;;9.43;8.63;;;8.30;99.90;;;;;;4966902;28;20553;-25
2020/12/13 04:36:17;;;;;;;8.77;7.87;;;8.30;99.90;;;;;;4972127;28;20548;-25
2020/12/13 04:38:43;;;;;;;8.73;7.70;;;8.30;99.90;;;;;;4972141;28;20449;-25
2020/12/13 04:41:12;;;;;;;8.83;7.80;;;8.30;99.90;;;;;;4971157;28;20527;-25
2020/12/13 04:43:39;;;;;;;8.67;7.97;;;8.30;99.90;;;;;;4967829;28;20457;-25
2020/12/13 04:46:08;;;;;;;8.73;7.87;;;8.30;99.90;;;;;;4965789;28;20451;-25
2020/12/13 04:48:37;;;;;;;8.57;7.70;;;8.30;99.90;;;;;;4979727;28;20498;-25
2020/12/13 04:51:04;;;;;;;8.90;8.10;;;8.30;99.90;;;;;;4984447;28;20456;-25
2020/12/13 04:53:33;;;;;;;9.80;8.70;;;8.30;99.90;;;;;;4985074;28;20464;-25
2020/12/13 04:56:01;;;;;;;8.30;7.60;;;8.30;99.90;;;;;;4985813;28;20444;-25
2020/12/13 04:58:29;;;;;;;9.03;8.23;;;8.20;99.90;;;;;;4985403;28;20452;-25
2020/12/13 05:00:59;;;;;;;8.00;7.30;;;8.20;99.90;;;;;;4985844;28;20466;-25
2020/12/13 05:03:27;;;;;;;9.97;9.07;;;8.10;99.90;;;;;;4984863;28;20552;-25
2020/12/13 05:05:58;;;;;;;8.30;7.50;;;8.10;99.90;;;;;;4984403;28;21096;-25
2020/12/13 05:08:26;;;;;;;8.87;8.07;;;8.10;99.90;;;;;;4984415;28;20496;-25
2020/12/13 05:10:54;;;;;;;8.73;7.83;;;8.10;99.90;;;;;;4984720;28;20451;-25
2020/12/13 05:13:22;;;;;;;8.90;7.57;;;8.10;99.90;;;;;;4984223;28;21167;-25
2020/12/13 05:15:50;;;;;;;9.50;8.57;;;8.10;99.90;;;;;;4983648;28;20444;-25
2020/12/13 05:18:17;;;;;;;8.67;7.77;;;8.10;99.90;;;;;;4983109;28;20471;-25
2020/12/13 05:20:45;;;;;;;9.20;8.30;;;8.10;99.90;;;;;;4984185;28;20570;-25
2020/12/13 05:23:13;;;;;;;10.00;7.90;;;8.10;99.90;;;;;;4986353;28;20456;-25
2020/12/13 05:25:41;;;;;;;10.47;9.33;;;8.10;99.90;;;;;;4983243;28;20474;-25
2020/12/13 05:28:11;;;;;;;9.40;8.50;;;8.20;99.90;;;;;;4983998;28;20483;-25
2020/12/13 05:30:41;;;;;;;9.20;8.30;;;8.20;99.90;;;;;;4984896;28;20753;-25
2020/12/13 05:33:17;;;;;;;12.80;11.17;;;8.20;99.90;;;;;;4985155;28;20460;-25
2020/12/13 05:35:44;;;;;;;13.77;12.37;;;8.20;99.90;;;;;;4964536;28;20969;-25
2020/12/13 05:38:12;;;;;;;10.20;9.30;;;8.20;99.90;;;;;;4965832;28;20445;-25
2020/12/13 05:40:39;;;;;;;9.53;8.73;;;8.20;99.90;;;;;;4965337;28;20568;-25
2020/12/13 05:43:11;;;;;;;9.03;8.20;;;8.30;99.90;;;;;;4964639;28;20457;-25
2020/12/13 05:45:54;;;;;;;9.03;8.23;;;8.30;99.90;;;;;;4964781;28;20468;-25
2020/12/13 05:48:52;;;;;;;10.00;9.00;;;8.20;99.90;;;;;;4964928;28;20461;-25
2020/12/13 05:54:10;;;;;;;12.60;11.40;;;8.20;99.90;;;;;;4965424;28;20453;-25
2020/12/13 05:56:38;;;;;;;12.40;11.33;;;8.20;99.90;;;;;;4968650;28;20444;-25
2020/12/13 05:59:07;;;;;;;8.50;7.80;;;8.20;99.90;;;;;;4968782;28;20449;-25
2020/12/13 06:01:36;;;;;;;8.53;7.73;;;8.10;99.90;;;;;;4968599;28;21388;-25
2020/12/13 06:04:13;;;;;;;10.37;9.37;;;8.10;99.90;;;;;;4968261;28;20923;-25
2020/12/13 06:06:43;;;;;;;9.17;8.37;;;8.10;99.90;;;;;;4967665;28;20577;-25
2020/12/13 06:09:11;;;;;;;8.60;7.40;;;8.10;99.90;;;;;;4982094;28;20496;-25
2020/12/13 06:11:45;;;;;;;8.50;7.70;;;8.10;99.90;;;;;;4968590;28;20516;-25
2020/12/13 06:14:18;;;;;;;10.40;9.40;;;8.10;99.90;;;;;;4965942;28;20504;-25
2020/12/13 06:16:45;;;;;;;7.90;7.20;;;8.10;99.90;;;;;;4968353;28;20437;-25
2020/12/13 06:19:15;;;;;;;7.80;7.10;;;8.10;99.90;;;;;;4968271;28;20576;-25
2020/12/13 06:21:45;;;;;;;7.97;7.37;;;8.10;99.90;;;;;;4969036;28;20900;-25
2020/12/13 06:24:13;;;;;;;8.93;7.90;;;8.10;99.90;;;;;;4966635;28;20499;-25
2020/12/13 06:26:41;;;;;;;7.83;7.13;;;8.20;99.90;;;;;;4966995;28;20461;-25
2020/12/13 06:29:08;;;;;;;9.87;8.93;;;8.10;99.90;;;;;;4969303;28;20492;-25
2020/12/13 06:31:36;;;;;;;10.73;9.73;;;8.10;99.90;;;;;;4968394;28;20495;-25
2020/12/13 06:34:04;;;;;;;8.73;8.00;;;8.10;99.90;;;;;;4968527;28;20453;-25
2020/12/13 06:36:34;;;;;;;9.87;8.97;;;8.10;99.90;;;;;;4968678;28;20467;-25
2020/12/13 06:39:07;;;;;;;11.33;7.97;;;8.10;99.90;;;;;;4969345;28;20532;-25
2020/12/13 06:41:35;;;;;;;6.80;6.20;;;8.10;99.90;;;;;;4966713;28;20471;-25
2020/12/13 06:44:06;;;;;;;7.60;6.90;;;8.20;99.90;;;;;;4968389;28;20477;-25
2020/12/13 06:46:39;;;;;;;8.03;7.37;;;8.20;99.90;;;;;;4968436;28;20449;-25
2020/12/13 06:49:06;;;;;;;8.43;7.40;;;8.20;99.90;;;;;;4966327;28;20477;-25
2020/12/13 06:51:36;;;;;;;8.50;7.70;;;8.20;99.90;;;;;;4966880;28;20584;-25
2020/12/13 06:54:07;;;;;;;7.57;6.87;;;8.20;99.90;;;;;;4965967;28;20524;-25
2020/12/13 06:56:35;;;;;;;8.30;7.50;;;8.10;99.90;;;;;;4967787;28;20855;-25
2020/12/13 06:59:04;;;;;;;7.70;6.90;;;8.20;99.90;;;;;;4967483;28;20445;-24
2020/12/13 07:01:33;;;;;;;15.47;14.10;;;8.20;99.90;;;;;;4966821;28;20859;-24
2020/12/13 07:04:26;;;;;;;9.20;8.40;;;8.20;99.90;;;;;;4966533;28;20461;-24
2020/12/13 07:06:59;;;;;;;10.07;9.07;;;8.20;99.90;;;;;;4966358;28;20967;-24
2020/12/13 07:09:29;;;;;;;9.33;8.43;;;8.20;99.90;;;;;;4962995;28;20568;-24
2020/12/13 07:11:58;;;;;;;10.40;9.43;;;8.20;99.90;;;;;;4966984;28;20485;-24
2020/12/13 07:14:27;;;;;;;9.17;8.37;;;8.20;99.90;;;;;;4965827;28;20449;-24
2020/12/13 07:17:04;;;;;;;6.93;6.37;;;8.30;99.90;;;;;;4965776;28;20468;-24
2020/12/13 07:19:33;;;;;;;6.60;6.10;;;8.30;99.90;;;;;;4967782;28;20445;-24
2020/12/13 07:22:05;;;;;;;6.20;5.60;;;8.30;99.90;;;;;;4965512;28;20477;-24
2020/12/13 07:24:33;;;;;;;6.70;6.10;;;8.30;99.90;;;;;;4967164;28;20453;-24
2020/12/13 07:27:01;;;;;;;7.27;6.67;;;8.30;99.90;;;;;;4966050;28;20560;-24
2020/12/13 07:29:31;;;;;;;7.50;6.77;;;8.30;99.90;;;;;;4966126;28;20465;-24
2020/12/13 07:32:00;;;;;;;6.57;6.00;;;8.30;99.90;;;;;;4966960;28;20770;-24
2020/12/13 07:34:27;;;;;;;7.83;7.13;;;8.20;99.90;;;;;;4965552;28;20487;-24
2020/12/13 07:36:53;;;;;;;8.30;7.60;;;8.20;99.90;;;;;;4967211;28;20453;-24
2020/12/13 07:39:22;;;;;;;6.97;6.47;;;8.30;99.90;;;;;;4968249;28;20449;-24
2020/12/13 07:41:49;;;;;;;7.00;6.50;;;8.30;99.90;;;;;;4966687;28;20543;-24
2020/12/13 07:44:17;;;;;;;7.40;6.80;;;8.30;99.90;;;;;;4967435;28;20460;-25
2020/12/13 07:46:46;;;;;;;10.67;9.70;;;8.30;99.90;;;;;;4966293;28;20567;-24
2020/12/13 07:49:15;;;;;;;9.93;9.10;;;8.30;99.90;;;;;;4965579;28;20473;-24
2020/12/13 07:51:44;;;;;;;8.10;7.40;;;8.30;99.90;;;;;;4966485;28;20529;-24
2020/12/13 07:54:18;;;;;;;6.77;6.27;;;8.40;99.90;;;;;;4965464;28;20491;-24
2020/12/13 07:56:49;;;;;;;7.43;6.80;;;8.40;99.90;;;;;;4965919;28;20485;-25
2020/12/13 07:59:18;;;;;;;6.67;6.07;;;8.30;99.90;;;;;;4966368;28;20446;-24
2020/12/13 08:01:49;;;;;;;6.83;5.60;;;8.40;99.90;;;;;;4966206;28;21150;-24
2020/12/13 08:04:17;;;;;;;7.70;7.00;;;8.40;99.90;;;;;;4962918;28;21168;-24
2020/12/13 08:06:45;;;;;;;11.27;10.13;;;8.40;99.90;;;;;;4966512;28;20456;-24
2020/12/13 08:09:14;;;;;;;12.40;11.37;;;8.40;99.90;;;;;;4962508;28;20965;-25
2020/12/13 08:11:41;;;;;;;7.13;6.63;;;8.40;99.90;;;;;;4963934;28;20491;-25
2020/12/13 08:14:13;;;;;;;6.73;6.20;;;8.40;99.90;;;;;;4963414;28;21062;-24
2020/12/13 08:16:39;;;;;;;6.93;6.33;;;8.40;99.90;;;;;;4964656;28;20698;-24
2020/12/13 08:19:12;;;;;;;12.77;9.83;;;8.40;99.90;;;;;;4964089;28;20464;-25
2020/12/13 08:21:50;;;;;;;10.50;8.40;;;8.30;99.90;;;;;;4959532;28;20465;-24
2020/12/13 08:24:18;;;;;;;8.47;7.60;;;8.30;99.90;;;;;;4962308;28;21001;-25
2020/12/13 08:26:47;;;;;;;14.50;10.97;;;8.30;99.90;;;;;;4963344;28;20852;-25
2020/12/13 08:29:16;;;;;;;7.17;6.47;;;8.40;99.90;;;;;;4964541;28;20583;-25
2020/12/13 08:31:45;;;;;;;7.80;7.20;;;8.40;99.90;;;;;;4964762;28;20931;-24
2020/12/13 08:34:11;;;;;;;10.30;9.33;;;8.40;99.90;;;;;;4964717;28;20461;-24
2020/12/13 08:36:39;;;;;;;6.57;6.07;;;8.40;99.90;;;;;;4964180;28;20469;-24
2020/12/13 08:39:09;;;;;;;9.23;8.53;;;8.50;99.90;;;;;;4965936;28;20457;-24
2020/12/13 08:41:35;;;;;;;9.17;7.20;;;8.40;99.90;;;;;;4963481;28;20512;-25
2020/12/13 08:44:02;;;;;;;8.10;6.47;;;8.50;99.90;;;;;;4962800;28;20501;-24
2020/12/13 08:46:37;;;;;;;5.83;5.20;;;8.50;99.90;;;;;;4965300;28;20908;-25
2020/12/13 08:49:06;;;;;;;5.07;4.67;;;8.50;99.90;;;;;;4962783;28;20618;-25
2020/12/13 08:51:33;;;;;;;5.47;4.97;;;8.40;99.90;;;;;;4963578;28;20561;-25
2020/12/13 08:54:02;;;;;;;5.43;5.00;;;8.40;99.90;;;;;;4962835;28;20564;-24
2020/12/13 08:56:37;;;;;;;5.50;5.10;;;8.40;99.90;;;;;;4962216;28;20491;-24
2020/12/13 08:59:05;;;;;;;5.43;5.00;;;8.30;99.90;;;;;;4963558;28;20464;-24
2020/12/13 09:01:37;;;;;;;6.13;5.63;;;8.40;99.90;;;;;;4963207;28;20457;-24
2020/12/13 09:04:18;;;;;;;5.53;5.07;;;8.40;99.90;;;;;;4963079;28;20544;-24
2020/12/13 09:06:53;;;;;;;5.27;4.87;;;8.40;99.90;;;;;;4961734;28;20543;-24
2020/12/13 09:09:21;;;;;;;5.40;5.00;;;8.30;99.90;;;;;;4966272;28;20903;-25
2020/12/13 09:11:49;;;;;;;6.87;5.20;;;8.30;99.90;;;;;;4983838;28;20453;-24
2020/12/13 09:14:31;;;;;;;6.03;5.50;;;8.40;99.90;;;;;;4982808;28;20492;-24
2020/12/13 09:17:02;;;;;;;6.37;5.70;;;8.40;99.90;;;;;;4983284;28;20448;-24
2020/12/13 09:19:30;;;;;;;8.23;5.70;;;8.40;99.90;;;;;;4982054;28;20459;-24
2020/12/13 09:21:58;;;;;;;5.10;4.70;;;8.40;99.90;;;;;;4983171;28;20559;-24
2020/12/13 09:24:28;;;;;;;6.30;5.70;;;8.50;99.90;;;;;;4983232;28;21295;-24
2020/12/13 09:27:04;;;;;;;6.57;5.70;;;8.60;99.90;;;;;;4982901;28;20547;-24
2020/12/13 09:29:33;;;;;;;5.27;4.87;;;8.60;99.90;;;;;;4985522;28;21339;-25
2020/12/13 09:32:01;;;;;;;7.00;6.33;;;8.70;99.90;;;;;;4987431;28;20546;-24
2020/12/13 09:34:28;;;;;;;6.47;5.93;;;8.70;99.90;;;;;;4977275;28;20567;-24
2020/12/13 09:36:56;;;;;;;6.23;5.67;;;8.70;99.90;;;;;;4966130;28;20519;-24
2020/12/13 09:39:23;;;;;;;5.50;5.00;;;8.70;99.90;;;;;;4968081;28;21128;-25
2020/12/13 09:41:50;;;;;;;5.20;4.70;;;8.80;99.90;;;;;;4961110;28;20460;-25
2020/12/13 09:44:17;;;;;;;5.50;4.90;;;8.90;99.90;;;;;;4966587;28;20954;-24
2020/12/13 09:46:45;;;;;;;6.57;5.97;;;9.00;99.90;;;;;;4965994;28;20461;-25
2020/12/13 09:49:12;;;;;;;5.77;5.27;;;9.00;99.90;;;;;;4966667;28;20991;-25
2020/12/13 09:51:40;;;;;;;6.40;5.90;;;9.10;99.90;;;;;;4965346;28;20559;-25
2020/12/13 09:54:07;;;;;;;5.20;4.80;;;9.10;99.90;;;;;;4966908;28;20445;-24
2020/12/13 09:56:33;;;;;;;6.37;5.80;;;9.10;99.90;;;;;;4966900;28;20456;-25
2020/12/13 09:59:01;;;;;;;6.60;6.10;;;9.00;99.90;;;;;;4969050;28;20488;-24
2020/12/13 10:01:28;;;;;;;5.37;4.97;;;9.00;99.90;;;;;;4984498;28;20510;-25
2020/12/13 10:03:56;;;;;;;6.50;6.00;;;9.00;99.90;;;;;;4984773;28;20877;-25
2020/12/13 10:09:12;;;;;;;7.30;6.70;;;8.90;99.90;;;;;;4960350;28;20488;-25
2020/12/13 10:11:41;;;;;;;8.10;7.03;;;8.90;99.90;;;;;;4971827;28;20440;-25
2020/12/13 10:14:10;;;;;;;8.80;8.00;;;8.90;99.90;;;;;;4986135;28;20488;-25
2020/12/13 10:16:39;;;;;;;7.57;6.97;;;8.90;99.90;;;;;;4986853;28;20460;-25
2020/12/13 10:19:06;;;;;;;6.90;6.33;;;8.90;99.90;;;;;;4986260;28;20456;-25
2020/12/13 10:21:36;;;;;;;6.63;6.03;;;8.90;99.90;;;;;;4985534;28;20464;-25
2020/12/13 10:24:04;;;;;;;8.07;7.47;;;8.90;99.90;;;;;;4979748;28;20496;-25
2020/12/13 10:26:34;;;;;;;7.00;6.37;;;9.00;99.90;;;;;;4966236;28;20456;-25
2020/12/13 10:29:03;;;;;;;7.50;6.80;;;8.90;99.90;;;;;;4967850;28;20509;-25
2020/12/13 10:31:32;;;;;;;7.40;6.80;;;8.90;99.90;;;;;;4966227;28;20461;-25
2020/12/13 10:34:02;;;;;;;7.93;7.13;;;8.90;99.90;;;;;;4966428;28;20840;-25
2020/12/13 10:36:33;;;;;;;10.90;7.57;;;8.80;99.90;;;;;;4965595;28;20441;-25
2020/12/13 10:38:59;;;;;;;11.37;9.00;;;8.80;99.90;;;;;;4964698;28;20493;-25
2020/12/13 10:41:26;;;;;;;8.60;7.70;;;8.70;99.90;;;;;;4965316;28;20457;-25
2020/12/13 10:43:53;;;;;;;8.20;7.40;;;8.70;99.90;;;;;;4965035;28;20473;-25
2020/12/13 10:46:19;;;;;;;9.30;8.50;;;8.70;99.90;;;;;;4964253;28;20460;-24
2020/12/13 10:48:46;;;;;;;10.83;9.83;;;8.80;99.90;;;;;;4965189;28;20603;-24
2020/12/13 10:51:14;;;;;;;9.37;7.80;;;8.80;99.90;;;;;;4965587;28;20794;-25
2020/12/13 10:53:43;;;;;;;8.83;8.00;;;8.80;99.90;;;;;;4966088;28;20456;-25
2020/12/13 10:56:10;;;;;;;9.83;8.83;;;8.90;99.90;;;;;;4965197;28;20956;-25
2020/12/13 10:58:40;;;;;;;9.83;8.83;;;9.00;99.90;;;;;;4966114;28;20453;-25
2020/12/13 11:01:08;;;;;;;8.27;7.47;;;9.10;99.90;;;;;;4965747;28;20461;-25
2020/12/13 11:03:36;;;;;;;8.40;7.40;;;9.20;99.90;;;;;;4981541;28;20464;-25
2020/12/13 11:06:03;;;;;;;8.30;7.40;;;9.20;99.90;;;;;;4965379;28;20850;-25
2020/12/13 11:08:29;;;;;;;8.50;7.43;;;9.20;99.90;;;;;;4964849;28;20484;-25
2020/12/13 11:10:58;;;;;;;9.57;6.97;;;9.20;99.90;;;;;;4961242;28;20485;-25
2020/12/13 11:13:26;;;;;;;8.63;7.47;;;9.30;99.90;;;;;;4962545;28;20520;-25
2020/12/13 11:15:53;;;;;;;10.87;9.77;;;9.30;99.90;;;;;;4964957;28;20770;-25
2020/12/13 11:18:20;;;;;;;8.67;7.80;;;9.40;99.90;;;;;;4964265;28;20580;-25
2020/12/13 11:20:46;;;;;;;11.60;8.40;;;9.40;99.90;;;;;;4964899;28;20437;-25
2020/12/13 11:23:13;;;;;;;8.87;7.93;;;9.50;99.90;;;;;;4964011;28;20914;-25
2020/12/13 11:25:39;;;;;;;7.47;6.77;;;9.60;99.90;;;;;;4963672;28;20515;-25
2020/12/13 11:28:09;;;;;;;9.53;6.90;;;9.80;99.90;;;;;;4964578;28;20548;-25
2020/12/13 11:30:36;;;;;;;7.23;6.53;;;9.90;99.90;;;;;;4967234;28;20436;-25
2020/12/13 11:33:02;;;;;;;6.37;5.80;;;10.00;99.90;;;;;;4963273;28;20878;-25
2020/12/13 11:35:30;;;;;;;7.00;6.30;;;9.90;99.90;;;;;;4963916;28;20445;-25
2020/12/13 11:37:57;;;;;;;6.60;6.10;;;9.90;99.90;;;;;;4958817;28;20555;-25
2020/12/13 11:40:25;;;;;;;9.50;7.20;;;9.90;99.90;;;;;;4963116;28;20450;-25
2020/12/13 11:42:52;;;;;;;6.70;6.10;;;9.90;99.90;;;;;;4963940;28;20452;-25
2020/12/13 11:45:21;;;;;;;6.43;5.93;;;9.90;99.90;;;;;;4963975;28;20452;-25
2020/12/13 11:47:48;;;;;;;6.30;5.80;;;10.00;99.90;;;;;;4962703;28;20457;-25
2020/12/13 11:50:16;;;;;;;7.53;6.10;;;10.10;99.90;;;;;;4963972;28;20476;-25
2020/12/13 11:52:42;;;;;;;6.10;5.47;;;10.10;99.90;;;;;;4964472;28;20472;-25
2020/12/13 11:55:09;;;;;;;9.67;6.63;;;10.10;99.90;;;;;;4962843;28;20489;-25
2020/12/13 11:57:36;;;;;;;6.80;6.10;;;10.00;99.90;;;;;;4962436;28;21003;-25
2020/12/13 12:00:04;;;;;;;8.07;7.20;;;10.10;99.90;;;;;;4844870;28;20469;-25
2020/12/13 12:02:41;;;;;;;9.67;7.70;;;10.20;99.90;;;;;;4961151;28;21172;-25
2020/12/13 12:05:09;;;;;;;7.13;6.43;;;10.30;99.90;;;;;;4878993;28;20453;-25
2020/12/13 12:07:37;;;;;;;6.47;5.90;;;10.30;99.90;;;;;;4956421;28;20437;-25
2020/12/13 12:10:04;;;;;;;7.73;7.00;;;10.40;99.90;;;;;;4964310;28;20568;-25
2020/12/13 12:12:31;;;;;;;7.73;7.03;;;10.50;99.90;;;;;;4964940;28;20993;-25
2020/12/13 12:14:59;;;;;;;7.20;6.50;;;10.60;99.90;;;;;;4964529;28;20453;-25
2020/12/13 12:17:26;;;;;;;10.20;6.73;;;10.70;99.90;;;;;;4963896;28;20468;-25
2020/12/13 12:19:54;;;;;;;6.60;5.80;;;10.70;99.90;;;;;;4965273;28;20477;-25
2020/12/13 12:22:22;;;;;;;7.63;6.67;;;10.70;99.90;;;;;;4963841;28;21338;-25
2020/12/13 12:24:50;;;;;;;7.10;6.33;;;10.50;99.90;;;;;;4963487;28;20464;-25
2020/12/13 12:27:18;;;;;;;9.70;7.00;;;10.40;99.90;;;;;;4962627;28;20871;-25
2020/12/13 12:29:47;;;;;;;7.83;7.03;;;10.20;99.90;;;;;;4963165;28;20493;-25
2020/12/13 12:32:16;;;;;;;9.30;7.70;;;10.20;99.90;;;;;;4964022;28;20453;-25
2020/12/13 12:34:43;;;;;;;8.10;6.47;;;10.30;99.90;;;;;;4964001;28;20449;-25
2020/12/13 12:37:10;;;;;;;6.30;5.80;;;10.30;99.90;;;;;;4963497;28;20475;-25
2020/12/13 12:39:36;;;;;;;6.37;5.40;;;10.20;99.90;;;;;;4964397;28;20557;-25
2020/12/13 12:42:03;;;;;;;6.30;5.70;;;10.30;99.90;;;;;;4963306;28;20441;-25
2020/12/13 12:44:31;;;;;;;7.17;6.50;;;10.20;99.90;;;;;;4963457;28;20500;-25
2020/12/13 12:46:59;;;;;;;6.67;5.60;;;10.10;99.90;;;;;;4961818;28;20448;-25
2020/12/13 12:49:26;;;;;;;6.53;5.93;;;10.10;99.90;;;;;;4962111;28;20477;-25
2020/12/13 12:51:53;;;;;;;7.20;6.50;;;10.00;99.90;;;;;;4961750;28;20508;-25
2020/12/13 12:54:21;;;;;;;7.40;5.90;;;10.00;99.90;;;;;;4962863;28;20453;-25
2020/12/13 12:56:49;;;;;;;7.03;6.23;;;10.00;99.90;;;;;;4961487;28;21166;-25
2020/12/13 12:59:23;;;;;;;7.53;5.87;;;9.90;99.90;;;;;;4962821;28;21111;-25
2020/12/13 13:01:53;;;;;;;9.47;6.43;;;10.00;99.90;;;;;;4954463;28;20445;-25
2020/12/13 13:04:24;;;;;;;5.83;5.33;;;10.00;99.90;;;;;;4966191;28;20449;-25